Time;durP1;ratioP1;P1;durP2;ratioP2;P2;SDS_P1;SDS_P2;PMS_P1;PMS_P2;Temp;Humidity;BMP_temperature;BMP_pressure;BME280_temperature;BME280_humidity;BME280_pressure;Samples;Min_cycle;Max_cycle;Signal;HPM_P1;HPM_P2
2023/10/07 00:00:59;;;;;;;3.78;2.53;;;16.60;91.70;;;;;;5025842;28;20617;-53
2023/10/07 00:03:25;;;;;;;6.80;2.90;;;16.60;91.90;;;;;;5024462;28;20048;-56
2023/10/07 00:06:00;;;;;;;6.70;2.70;;;16.70;91.90;;;;;;5021947;28;20018;-55
2023/10/07 00:08:27;;;;;;;6.80;2.85;;;16.70;92.10;;;;;;5025889;28;20149;-55
2023/10/07 00:10:58;;;;;;;6.85;2.88;;;16.70;92.10;;;;;;5021054;28;20029;-53
2023/10/07 00:13:26;;;;;;;4.85;2.60;;;16.70;92.00;;;;;;5011471;28;20052;-52
2023/10/07 00:15:53;;;;;;;5.53;2.70;;;16.70;92.00;;;;;;5019895;28;20489;-52
2023/10/07 00:18:19;;;;;;;6.85;2.80;;;16.70;92.10;;;;;;5031941;28;20033;-55
2023/10/07 00:20:50;;;;;;;6.10;2.58;;;16.70;92.00;;;;;;5026678;28;20103;-54
2023/10/07 00:23:21;;;;;;;7.05;3.00;;;16.70;92.30;;;;;;5030864;28;20071;-53
2023/10/07 00:25:51;;;;;;;5.63;2.63;;;16.70;92.40;;;;;;5029556;28;20468;-53
2023/10/07 00:28:32;;;;;;;6.97;3.15;;;16.70;92.70;;;;;;5027369;28;20135;-54
2023/10/07 00:31:05;;;;;;;6.20;2.75;;;16.70;92.60;;;;;;5025235;28;20028;-55
2023/10/07 00:33:50;;;;;;;5.07;2.72;;;16.70;92.70;;;;;;5022112;28;20041;-56
2023/10/07 00:36:56;;;;;;;5.82;2.97;;;16.60;92.80;;;;;;5022320;28;20033;-55
2023/10/07 00:39:20;;;;;;;5.05;2.40;;;16.60;92.90;;;;;;5017348;28;20057;-55
2023/10/07 00:41:47;;;;;;;4.38;2.58;;;16.60;93.00;;;;;;5028092;28;20105;-53
2023/10/07 00:44:31;;;;;;;4.25;2.53;;;16.60;92.90;;;;;;5007452;28;20026;-55
2023/10/07 00:49:41;;;;;;;6.60;2.72;;;16.60;93.00;;;;;;5023943;28;20528;-51
2023/10/07 00:52:14;;;;;;;6.03;2.45;;;16.60;93.20;;;;;;5029104;28;20021;-45
2023/10/07 00:57:29;;;;;;;5.55;2.80;;;16.60;93.20;;;;;;5019953;28;20422;-50
2023/10/07 00:59:57;;;;;;;6.40;2.50;;;16.60;93.20;;;;;;5023736;28;20075;-51
2023/10/07 01:02:30;;;;;;;5.93;2.80;;;16.60;93.40;;;;;;5029795;28;20017;-51
2023/10/07 01:05:00;;;;;;;5.35;2.53;;;16.60;93.40;;;;;;5024230;28;20025;-52
2023/10/07 01:07:31;;;;;;;5.22;2.83;;;16.60;93.40;;;;;;5026994;28;20029;-51
2023/10/07 01:10:11;;;;;;;6.57;3.10;;;16.70;93.30;;;;;;5029740;28;20437;-52
2023/10/07 01:12:39;;;;;;;10.50;3.75;;;16.70;93.40;;;;;;5025547;28;20115;-51
2023/10/07 01:15:22;;;;;;;5.93;3.25;;;16.70;93.50;;;;;;5028797;28;20496;-49
2023/10/07 01:17:53;;;;;;;4.82;2.47;;;16.70;93.40;;;;;;5025019;28;20780;-50
2023/10/07 01:20:22;;;;;;;5.13;2.97;;;16.70;93.60;;;;;;5020501;28;20091;-49
2023/10/07 01:23:03;;;;;;;5.05;2.70;;;16.70;93.70;;;;;;5025909;28;20021;-49
2023/10/07 01:25:30;;;;;;;6.50;2.75;;;16.70;93.80;;;;;;5023551;28;20041;-48
2023/10/07 01:27:56;;;;;;;5.70;2.63;;;16.70;93.80;;;;;;5026681;28;20033;-47
2023/10/07 01:30:29;;;;;;;6.50;2.90;;;16.70;93.80;;;;;;5023863;28;20091;-48
2023/10/07 01:33:02;;;;;;;4.57;2.28;;;16.70;93.80;;;;;;5024471;28;20037;-48
2023/10/07 01:35:32;;;;;;;5.78;2.88;;;16.80;94.00;;;;;;5032033;28;20025;-49
2023/10/07 01:38:08;;;;;;;7.93;3.15;;;16.80;93.90;;;;;;5030919;28;20075;-49
2023/10/07 01:43:15;;;;;;;5.10;2.90;;;16.80;94.00;;;;;;5025111;28;20040;-48
2023/10/07 01:45:41;;;;;;;8.43;3.40;;;16.80;94.10;;;;;;5035849;28;20118;-48
2023/10/07 01:48:07;;;;;;;4.90;2.50;;;16.80;94.10;;;;;;5023562;28;20045;-47
2023/10/07 01:50:45;;;;;;;7.32;3.15;;;16.80;94.20;;;;;;5031917;28;20041;-50
2023/10/07 01:53:17;;;;;;;8.80;3.10;;;16.80;94.20;;;;;;5032866;28;20029;-46
2023/10/07 01:55:43;;;;;;;4.38;2.58;;;16.80;94.10;;;;;;5023589;28;20100;-48
2023/10/07 01:58:13;;;;;;;4.57;2.58;;;16.80;94.20;;;;;;5036042;28;20104;-51
2023/10/07 02:00:45;;;;;;;8.15;3.45;;;16.80;94.20;;;;;;5034993;28;20049;-50
2023/10/07 02:03:16;;;;;;;6.60;3.03;;;16.90;94.20;;;;;;5034611;28;20017;-52
2023/10/07 02:05:48;;;;;;;7.30;3.60;;;16.90;94.40;;;;;;5031268;28;20048;-50
2023/10/07 02:08:18;;;;;;;4.78;2.63;;;16.90;94.40;;;;;;5031759;28;20371;-50
2023/10/07 02:10:45;;;;;;;4.68;2.58;;;16.80;94.40;;;;;;5028410;28;20084;-48
2023/10/07 02:13:19;;;;;;;7.40;2.90;;;16.90;94.40;;;;;;5037807;28;20451;-49
2023/10/07 02:15:57;;;;;;;6.13;2.83;;;16.90;94.30;;;;;;5032367;28;20405;-46
2023/10/07 02:18:26;;;;;;;6.25;2.72;;;16.90;94.40;;;;;;5026817;28;20030;-47
2023/10/07 02:20:53;;;;;;;4.88;2.65;;;16.90;94.50;;;;;;5030964;28;20050;-50
2023/10/07 02:23:43;;;;;;;5.10;2.47;;;16.90;94.70;;;;;;5027379;28;20119;-51
2023/10/07 02:26:15;;;;;;;5.35;2.72;;;16.90;94.90;;;;;;5026544;28;20033;-52
2023/10/07 02:28:42;;;;;;;6.30;3.50;;;16.90;95.00;;;;;;5026810;28;20030;-51
2023/10/07 02:31:08;;;;;;;7.10;3.30;;;16.90;95.20;;;;;;5030007;28;20056;-51
2023/10/07 02:33:41;;;;;;;5.55;2.90;;;16.90;95.20;;;;;;5009862;28;20053;-49
2023/10/07 02:36:12;;;;;;;6.68;2.70;;;16.90;95.10;;;;;;5012937;28;20060;-51
2023/10/07 02:38:41;;;;;;;9.35;3.67;;;16.90;95.10;;;;;;5024266;28;20029;-47
2023/10/07 02:41:16;;;;;;;4.60;2.95;;;16.90;95.20;;;;;;5027834;28;20515;-52
2023/10/07 02:43:43;;;;;;;5.20;2.97;;;16.90;95.20;;;;;;5029730;28;20040;-48
2023/10/07 02:46:22;;;;;;;4.78;2.67;;;16.90;95.40;;;;;;5027257;28;20026;-47
2023/10/07 02:48:47;;;;;;;5.88;3.05;;;16.90;95.40;;;;;;5022350;28;20037;-50
2023/10/07 02:51:13;;;;;;;8.95;3.47;;;16.90;95.50;;;;;;5030443;28;20111;-49
2023/10/07 02:53:39;;;;;;;8.30;2.95;;;16.90;95.50;;;;;;5031173;28;20064;-50
2023/10/07 02:56:17;;;;;;;6.65;3.25;;;16.90;95.60;;;;;;5029402;28;20032;-51
2023/10/07 02:58:51;;;;;;;7.88;2.78;;;16.90;95.70;;;;;;5022652;28;20129;-48
2023/10/07 03:01:25;;;;;;;6.80;3.05;;;16.90;95.60;;;;;;5032441;28;20033;-49
2023/10/07 03:03:51;;;;;;;5.82;2.85;;;16.90;95.70;;;;;;5030503;28;20048;-50
2023/10/07 03:06:19;;;;;;;6.55;3.20;;;16.90;95.60;;;;;;5027891;28;20507;-47
2023/10/07 03:11:12;;;;;;;9.73;3.03;;;16.90;95.80;;;;;;5029443;28;20024;-49
2023/10/07 03:13:45;;;;;;;8.75;3.28;;;16.90;95.80;;;;;;5029339;28;20040;-48
2023/10/07 03:19:20;;;;;;;7.70;3.00;;;16.90;95.90;;;;;;5032036;28;20159;-52
2023/10/07 03:24:10;;;;;;;5.43;2.83;;;16.90;96.30;;;;;;5031257;28;20432;-50
2023/10/07 03:26:38;;;;;;;5.35;2.92;;;16.90;96.30;;;;;;5027280;28;20094;-49
2023/10/07 03:29:04;;;;;;;8.70;3.38;;;16.90;96.50;;;;;;5034347;28;20033;-51
2023/10/07 03:31:35;;;;;;;7.30;2.92;;;16.90;96.40;;;;;;5029751;28;20025;-50
2023/10/07 03:34:03;;;;;;;9.32;3.50;;;16.90;96.60;;;;;;5027483;28;20049;-49
2023/10/07 03:36:41;;;;;;;9.45;2.90;;;16.90;97.00;;;;;;5026431;28;20053;-50
2023/10/07 03:39:20;;;;;;;5.10;3.08;;;16.90;97.00;;;;;;5029062;28;20090;-49
2023/10/07 03:41:48;;;;;;;5.63;2.50;;;16.90;96.90;;;;;;5029104;28;20029;-50
2023/10/07 03:44:19;;;;;;;8.15;3.58;;;16.90;97.10;;;;;;5024944;28;20030;-47
2023/10/07 03:46:47;;;;;;;5.93;2.83;;;16.80;97.00;;;;;;5034477;28;20033;-49
2023/10/07 03:49:15;;;;;;;6.35;3.35;;;16.80;97.10;;;;;;5027818;28;20152;-48
2023/10/07 03:51:41;;;;;;;5.95;2.88;;;16.90;97.40;;;;;;5028855;28;20076;-52
2023/10/07 03:54:11;;;;;;;5.95;3.72;;;16.80;97.80;;;;;;5027464;28;20444;-50
2023/10/07 03:56:37;;;;;;;8.07;3.53;;;16.80;97.70;;;;;;5025700;28;20514;-51
2023/10/07 03:59:05;;;;;;;5.93;2.78;;;16.80;97.80;;;;;;5029313;28;20447;-46
2023/10/07 04:01:35;;;;;;;6.93;2.80;;;16.80;97.60;;;;;;5027434;28;20025;-48
2023/10/07 04:04:01;;;;;;;8.30;3.70;;;16.80;98.00;;;;;;5022291;28;20052;-48
2023/10/07 04:06:30;;;;;;;6.25;3.08;;;16.80;98.30;;;;;;5028634;28;20017;-51
2023/10/07 04:09:05;;;;;;;8.25;3.42;;;16.80;98.20;;;;;;5029059;28;20711;-54
2023/10/07 04:11:48;;;;;;;5.00;2.95;;;16.80;98.40;;;;;;5028820;28;20027;-48
2023/10/07 04:14:26;;;;;;;6.25;3.00;;;16.80;98.30;;;;;;5027519;28;20029;-51
2023/10/07 04:16:53;;;;;;;5.05;2.88;;;16.70;98.40;;;;;;5021111;28;20045;-47
2023/10/07 04:21:45;;;;;;;7.40;3.05;;;16.70;98.50;;;;;;5027379;28;20420;-51
2023/10/07 04:24:11;;;;;;;5.38;2.70;;;16.80;98.50;;;;;;5021294;28;20082;-48
2023/10/07 04:26:42;;;;;;;10.07;2.95;;;16.70;98.70;;;;;;5030196;28;20103;-48
2023/10/07 04:29:14;;;;;;;7.05;3.28;;;16.70;98.60;;;;;;5026173;28;20030;-50
2023/10/07 04:31:45;;;;;;;7.03;2.90;;;16.70;98.80;;;;;;5028205;28;20132;-52
2023/10/07 04:34:16;;;;;;;6.03;3.42;;;16.70;98.60;;;;;;5025595;28;20029;-48
2023/10/07 04:39:39;;;;;;;6.13;3.47;;;16.60;98.90;;;;;;5021080;28;20028;-47
2023/10/07 04:42:20;;;;;;;7.72;2.90;;;16.60;98.90;;;;;;5027858;28;20813;-57
2023/10/07 04:47:29;;;;;;;7.90;3.45;;;16.60;99.10;;;;;;5021772;28;20029;-65
2023/10/07 04:52:30;;;;;;;5.38;2.88;;;16.60;99.10;;;;;;5022182;28;20444;-65
2023/10/07 04:55:00;;;;;;;9.15;3.75;;;16.60;99.20;;;;;;5031901;28;20500;-63
2023/10/07 04:57:45;;;;;;;4.78;2.55;;;16.60;99.40;;;;;;5026562;28;20025;-64
2023/10/07 05:02:57;;;;;;;5.60;2.38;;;16.60;99.60;;;;;;5024251;28;20041;-63
2023/10/07 05:05:24;;;;;;;5.70;2.90;;;16.60;99.90;;;;;;5028104;28;20385;-64
2023/10/07 05:07:50;;;;;;;6.43;3.13;;;16.60;99.90;;;;;;5028332;28;20488;-64
2023/10/07 05:10:20;;;;;;;5.22;3.20;;;16.50;99.90;;;;;;5026894;28;20032;-64
2023/10/07 05:12:46;;;;;;;5.43;3.38;;;16.60;99.90;;;;;;5021332;28;20018;-64
2023/10/07 05:15:13;;;;;;;3.78;2.70;;;16.60;99.90;;;;;;5027199;28;20209;-64
2023/10/07 05:17:39;;;;;;;7.70;2.80;;;16.60;99.90;;;;;;5023767;28;20033;-64
2023/10/07 05:20:18;;;;;;;6.95;3.97;;;16.60;99.90;;;;;;5028422;28;20029;-64
2023/10/07 05:22:44;;;;;;;5.40;3.20;;;16.50;99.90;;;;;;5024973;28;20083;-63
2023/10/07 05:25:09;;;;;;;11.48;3.67;;;16.60;99.90;;;;;;5028215;28;20021;-64
2023/10/07 05:27:40;;;;;;;5.85;3.53;;;16.60;99.90;;;;;;5023467;28;20044;-64
2023/10/07 05:30:07;;;;;;;9.80;3.70;;;16.60;99.90;;;;;;5030092;28;20025;-64
2023/10/07 05:32:35;;;;;;;7.20;3.47;;;16.60;99.90;;;;;;5025558;28;21185;-64
2023/10/07 05:35:01;;;;;;;7.63;3.10;;;16.50;99.90;;;;;;5028082;28;20070;-64
2023/10/07 05:37:26;;;;;;;6.18;2.92;;;16.50;99.90;;;;;;5031944;28;20435;-65
2023/10/07 05:39:52;;;;;;;6.80;3.17;;;16.50;99.90;;;;;;5029378;28;20030;-64
2023/10/07 05:42:20;;;;;;;7.68;3.30;;;16.60;99.90;;;;;;5031003;28;20137;-64
2023/10/07 05:44:45;;;;;;;4.93;2.70;;;16.50;99.90;;;;;;5025040;28;20025;-65
2023/10/07 05:47:12;;;;;;;6.60;3.28;;;16.50;99.90;;;;;;5026571;28;20437;-66
2023/10/07 05:49:38;;;;;;;7.75;3.20;;;16.50;99.90;;;;;;5027631;28;20079;-65
2023/10/07 05:52:04;;;;;;;7.40;3.75;;;16.60;99.90;;;;;;5030854;28;20048;-65
2023/10/07 05:54:31;;;;;;;7.75;3.53;;;16.50;99.90;;;;;;5031048;28;20021;-65
2023/10/07 05:56:58;;;;;;;6.22;3.58;;;16.50;99.90;;;;;;5026613;28;20034;-50
2023/10/07 05:59:24;;;;;;;3.60;2.72;;;16.50;99.90;;;;;;5030752;28;20021;-50
2023/10/07 06:01:50;;;;;;;6.10;2.80;;;16.50;99.90;;;;;;5032715;28;20022;-53
2023/10/07 06:04:15;;;;;;;7.18;3.40;;;16.60;99.90;;;;;;5029555;28;20116;-52
2023/10/07 06:06:44;;;;;;;5.95;2.97;;;16.60;99.90;;;;;;5030394;28;20045;-53
2023/10/07 06:09:14;;;;;;;6.35;2.88;;;16.50;99.90;;;;;;5027587;28;20041;-58
2023/10/07 06:11:42;;;;;;;8.88;2.95;;;16.50;99.90;;;;;;5030652;28;20017;-53
2023/10/07 06:14:08;;;;;;;6.53;2.88;;;16.50;99.90;;;;;;5032782;28;20021;-54
2023/10/07 06:16:33;;;;;;;3.85;2.50;;;16.50;99.90;;;;;;5025766;28;20105;-54
2023/10/07 06:18:59;;;;;;;5.80;3.17;;;16.50;99.90;;;;;;5029725;28;20112;-50
2023/10/07 06:21:27;;;;;;;8.85;3.67;;;16.50;99.90;;;;;;5027079;28;20106;-49
2023/10/07 06:23:56;;;;;;;6.72;3.70;;;16.60;99.90;;;;;;5027399;28;20377;-52
2023/10/07 06:26:24;;;;;;;6.45;3.22;;;16.60;99.90;;;;;;5023768;28;20045;-50
2023/10/07 06:28:50;;;;;;;7.50;3.05;;;16.60;99.90;;;;;;5030463;28;20021;-51
2023/10/07 06:31:34;;;;;;;8.45;3.05;;;16.60;99.90;;;;;;5028716;28;20696;-50
2023/10/07 06:34:00;;;;;;;9.90;3.90;;;16.60;99.90;;;;;;5018932;28;20129;-52
2023/10/07 06:36:32;;;;;;;8.18;2.85;;;16.60;99.90;;;;;;5028404;28;20108;-52
2023/10/07 06:39:01;;;;;;;8.60;3.00;;;16.60;99.90;;;;;;5030375;28;20068;-47
2023/10/07 06:41:29;;;;;;;5.47;2.97;;;16.60;99.90;;;;;;5027689;28;20066;-50
2023/10/07 06:43:59;;;;;;;4.95;3.15;;;16.50;99.90;;;;;;5023813;28;20029;-53
2023/10/07 06:46:29;;;;;;;7.70;3.15;;;16.50;99.90;;;;;;5025742;28;20039;-50
2023/10/07 06:48:55;;;;;;;7.18;3.67;;;16.40;99.90;;;;;;5022476;28;20511;-52
2023/10/07 06:51:20;;;;;;;7.53;3.65;;;16.40;99.90;;;;;;5034508;28;20095;-50
2023/10/07 06:53:46;;;;;;;10.27;4.35;;;16.40;99.90;;;;;;5032736;28;20576;-51
2023/10/07 06:56:21;;;;;;;5.30;3.78;;;16.30;99.90;;;;;;5029690;28;20424;-51
2023/10/07 06:58:53;;;;;;;7.43;3.50;;;16.30;99.90;;;;;;5030163;28;20951;-54
2023/10/07 07:02:11;;;;;;;7.32;3.42;;;16.30;99.90;;;;;;5033231;28;20029;-50
2023/10/07 07:04:11;;;;;;;6.90;4.03;;;16.30;99.90;;;;;;5022229;28;20057;-50
2023/10/07 07:06:44;;;;;;;7.70;3.95;;;16.20;99.90;;;;;;5029978;28;20063;-51
2023/10/07 07:11:58;;;;;;;7.05;4.20;;;16.20;99.90;;;;;;5026135;28;20036;-52
2023/10/07 07:14:28;;;;;;;8.18;4.07;;;16.10;99.90;;;;;;5027149;28;20091;-52
2023/10/07 07:16:57;;;;;;;9.75;3.85;;;16.20;99.90;;;;;;5024907;28;20033;-51
2023/10/07 07:19:29;;;;;;;7.75;3.80;;;16.10;99.90;;;;;;5032011;28;20029;-51
2023/10/07 07:21:57;;;;;;;7.30;3.15;;;16.10;99.90;;;;;;5025621;28;20116;-53
2023/10/07 07:24:25;;;;;;;9.18;3.78;;;16.10;99.90;;;;;;5024632;28;20033;-51
2023/10/07 07:26:52;;;;;;;9.10;3.72;;;16.10;99.90;;;;;;5032049;28;20075;-52
2023/10/07 07:29:24;;;;;;;11.93;4.55;;;16.20;99.90;;;;;;5032073;28;20033;-53
2023/10/07 07:31:50;;;;;;;6.53;3.78;;;16.20;99.90;;;;;;5029685;28;20033;-53
2023/10/07 07:34:24;;;;;;;6.93;3.83;;;16.20;99.90;;;;;;5025720;28;20026;-49
2023/10/07 07:36:59;;;;;;;8.93;3.65;;;16.20;99.90;;;;;;5025630;28;20040;-53
2023/10/07 07:39:29;;;;;;;7.18;3.90;;;16.20;99.90;;;;;;5025580;28;20122;-51
2023/10/07 07:41:55;;;;;;;5.00;3.58;;;16.20;99.90;;;;;;5024643;28;20041;-48
2023/10/07 07:44:32;;;;;;;8.27;3.58;;;16.20;99.90;;;;;;5028913;28;20044;-49
2023/10/07 07:46:59;;;;;;;10.68;4.13;;;16.20;99.90;;;;;;5028954;28;20516;-52
2023/10/07 07:49:27;;;;;;;8.40;4.60;;;16.20;99.90;;;;;;5025686;28;20025;-52
2023/10/07 07:51:53;;;;;;;9.43;3.80;;;16.10;99.90;;;;;;5033448;28;20048;-53
2023/10/07 07:54:19;;;;;;;7.68;4.50;;;16.10;99.90;;;;;;5030034;28;20395;-53
2023/10/07 07:56:48;;;;;;;6.90;4.00;;;16.00;99.90;;;;;;5028469;28;20544;-52
2023/10/07 07:59:14;;;;;;;10.40;4.60;;;16.00;99.90;;;;;;5013372;28;20537;-50
2023/10/07 08:02:11;;;;;;;7.97;4.20;;;16.10;99.90;;;;;;5024559;28;20024;-53
2023/10/07 08:04:47;;;;;;;5.72;3.40;;;16.10;99.90;;;;;;5026689;28;20468;-52
2023/10/07 08:09:50;;;;;;;5.82;3.33;;;16.10;99.90;;;;;;5029170;28;20059;-51
2023/10/07 08:12:19;;;;;;;12.50;4.40;;;16.20;99.90;;;;;;5021079;28;20033;-53
2023/10/07 08:14:50;;;;;;;5.50;3.72;;;16.10;99.90;;;;;;5025446;28;20065;-50
2023/10/07 08:17:19;;;;;;;8.13;4.10;;;16.20;99.90;;;;;;5024596;28;20570;-50
2023/10/07 08:19:49;;;;;;;6.72;4.22;;;16.20;99.90;;;;;;5014536;28;20485;-53
2023/10/07 08:22:19;;;;;;;8.27;4.05;;;16.20;99.90;;;;;;5014636;28;20037;-53
2023/10/07 08:24:45;;;;;;;9.07;4.03;;;16.30;99.90;;;;;;5027144;28;20105;-50
2023/10/07 08:27:43;;;;;;;5.47;3.72;;;16.30;99.90;;;;;;5028376;28;20124;-51
2023/10/07 08:30:05;;;;;;;8.95;4.07;;;16.40;99.90;;;;;;5024850;28;20041;-53
2023/10/07 08:32:37;;;;;;;6.10;3.70;;;16.40;99.90;;;;;;5020548;28;20048;-53
2023/10/07 08:35:14;;;;;;;5.97;4.00;;;16.40;99.90;;;;;;5029753;28;20040;-49
2023/10/07 08:37:47;;;;;;;6.13;3.42;;;16.30;99.90;;;;;;5025374;28;20477;-47
2023/10/07 08:40:28;;;;;;;8.40;3.70;;;16.40;99.90;;;;;;5023855;28;20036;-52
2023/10/07 08:42:56;;;;;;;6.20;3.50;;;16.40;99.90;;;;;;5020974;28;20028;-55
2023/10/07 08:45:25;;;;;;;4.80;3.58;;;16.40;99.90;;;;;;5029988;28;20076;-52
2023/10/07 08:47:51;;;;;;;4.03;2.88;;;16.40;99.90;;;;;;5024278;28;20034;-52
2023/10/07 08:50:19;;;;;;;6.75;3.90;;;16.40;99.90;;;;;;5026681;28;20025;-52
2023/10/07 08:52:45;;;;;;;4.45;3.20;;;16.40;99.90;;;;;;5022692;28;20036;-51
2023/10/07 08:55:10;;;;;;;5.25;3.15;;;16.40;99.90;;;;;;5022524;28;20034;-51
2023/10/07 08:57:37;;;;;;;7.22;3.35;;;16.50;99.90;;;;;;5026479;28;20070;-50
2023/10/07 09:00:11;;;;;;;6.63;3.33;;;16.50;99.90;;;;;;5022751;28;20037;-53
2023/10/07 09:02:39;;;;;;;6.65;3.60;;;16.40;99.90;;;;;;5019405;28;20026;-53
2023/10/07 09:05:09;;;;;;;5.15;3.83;;;16.50;99.90;;;;;;5027413;28;20021;-53
2023/10/07 09:07:36;;;;;;;6.43;3.63;;;16.50;99.90;;;;;;5020112;28;20100;-53
2023/10/07 09:10:07;;;;;;;5.95;3.55;;;16.50;99.90;;;;;;5025393;28;20095;-54
2023/10/07 09:12:39;;;;;;;5.22;3.28;;;16.50;99.90;;;;;;5024373;28;20666;-51
2023/10/07 09:15:12;;;;;;;5.95;3.53;;;16.50;99.90;;;;;;5020508;28;20017;-52
2023/10/07 09:17:41;;;;;;;6.38;3.30;;;16.50;99.90;;;;;;5022991;28;20112;-49
2023/10/07 09:20:17;;;;;;;4.40;3.35;;;16.50;99.90;;;;;;5023742;28;20518;-48
2023/10/07 09:22:46;;;;;;;4.18;2.83;;;16.50;99.90;;;;;;5020104;28;20049;-52
2023/10/07 09:25:18;;;;;;;6.97;3.65;;;16.60;99.90;;;;;;5007005;28;20101;-48
2023/10/07 09:27:56;;;;;;;6.85;3.58;;;16.60;99.90;;;;;;5025891;28;20152;-52
2023/10/07 09:30:45;;;;;;;4.65;2.90;;;16.60;99.90;;;;;;5023953;28;20041;-50
2023/10/07 09:33:13;;;;;;;6.88;3.65;;;16.60;99.90;;;;;;5019531;28;20014;-50
2023/10/07 09:35:43;;;;;;;6.70;3.53;;;16.60;99.90;;;;;;5025292;28;20024;-50
2023/10/07 09:38:27;;;;;;;4.40;3.10;;;16.60;99.90;;;;;;5026070;28;20017;-53
2023/10/07 09:41:11;;;;;;;4.70;3.10;;;16.70;99.90;;;;;;5022794;28;20057;-50
2023/10/07 09:43:37;;;;;;;5.30;3.88;;;16.70;99.90;;;;;;5025152;28;20032;-52
2023/10/07 09:46:04;;;;;;;5.45;3.58;;;16.70;99.90;;;;;;5022686;28;20523;-49
2023/10/07 09:48:33;;;;;;;6.03;3.58;;;16.70;99.90;;;;;;5022537;28;20037;-51
2023/10/07 09:51:05;;;;;;;7.35;3.42;;;16.70;99.90;;;;;;5028142;28;20030;-52
2023/10/07 09:53:55;;;;;;;7.22;3.45;;;16.80;99.90;;;;;;5025210;28;20128;-52
2023/10/07 09:56:43;;;;;;;4.30;3.17;;;16.80;99.90;;;;;;5019800;28;20737;-56
2023/10/07 09:59:37;;;;;;;4.13;3.17;;;16.80;99.90;;;;;;5026805;28;20659;-55
2023/10/07 10:02:31;;;;;;;5.57;3.20;;;16.80;99.90;;;;;;5018722;28;20030;-56
2023/10/07 10:05:12;;;;;;;8.05;3.25;;;16.80;99.90;;;;;;5020007;28;20040;-56
2023/10/07 10:08:10;;;;;;;5.32;3.25;;;16.80;99.90;;;;;;5025913;28;20026;-55
2023/10/07 10:10:43;;;;;;;6.22;3.25;;;16.80;99.90;;;;;;5026392;28;20021;-55
2023/10/07 10:16:18;;;;;;;6.40;4.22;;;16.90;99.90;;;;;;5027516;28;20520;-55
2023/10/07 10:18:50;;;;;;;6.13;3.92;;;16.90;99.90;;;;;;5022877;28;20064;-54
2023/10/07 10:21:24;;;;;;;7.95;3.80;;;16.90;99.90;;;;;;5027148;28;20028;-55
2023/10/07 10:23:51;;;;;;;7.07;3.92;;;16.90;99.90;;;;;;5022104;28;20025;-55
2023/10/07 10:26:27;;;;;;;10.55;4.57;;;16.90;99.90;;;;;;5027155;28;20613;-54
2023/10/07 10:29:04;;;;;;;;;;;16.90;99.90;;;;;;5022888;28;20104;-55
2023/10/07 10:31:32;;;;;;;8.35;4.63;;;16.90;99.90;;;;;;5028908;28;19939;-55
2023/10/07 10:33:59;;;;;;;11.55;4.78;;;16.90;99.90;;;;;;5025984;28;20048;-55
2023/10/07 10:36:24;;;;;;;12.98;4.82;;;16.90;99.90;;;;;;5027853;28;20536;-55
2023/10/07 10:38:50;;;;;;;6.18;4.63;;;16.90;99.90;;;;;;5023067;28;20097;-55
2023/10/07 10:41:29;;;;;;;9.18;5.43;;;16.90;99.90;;;;;;5028219;28;20575;-55
2023/10/07 10:44:06;;;;;;;10.75;5.38;;;16.90;99.90;;;;;;5004087;28;20086;-55
2023/10/07 10:46:44;;;;;;;6.97;5.32;;;16.90;99.90;;;;;;5023874;28;20343;-53
2023/10/07 10:49:11;;;;;;;11.23;5.63;;;16.90;99.90;;;;;;5025473;28;20083;-54
2023/10/07 10:51:39;;;;;;;7.05;5.50;;;16.90;99.90;;;;;;5024287;28;20026;-56
2023/10/07 10:54:05;;;;;;;9.20;5.95;;;16.80;99.90;;;;;;5026366;28;20050;-55
2023/10/07 10:56:31;;;;;;;10.93;7.55;;;16.80;99.90;;;;;;5028233;28;20494;-56
2023/10/07 10:58:56;;;;;;;12.95;6.40;;;16.70;99.90;;;;;;5029890;28;20048;-55
2023/10/07 11:01:22;;;;;;;11.18;6.15;;;16.70;99.90;;;;;;5014376;28;20033;-54
2023/10/07 11:03:49;;;;;;;8.93;6.05;;;16.70;99.90;;;;;;5029191;28;20094;-56
2023/10/07 11:06:15;;;;;;;7.65;5.63;;;16.70;99.90;;;;;;5011854;28;20509;-56
2023/10/07 11:08:41;;;;;;;10.85;6.53;;;16.70;99.90;;;;;;5031988;28;20041;-53
2023/10/07 11:11:10;;;;;;;9.90;7.22;;;16.70;99.90;;;;;;5030534;28;20782;-57
2023/10/07 11:13:37;;;;;;;9.90;6.30;;;16.70;99.90;;;;;;5028864;28;20497;-55
2023/10/07 11:16:11;;;;;;;8.50;6.95;;;16.70;99.90;;;;;;5034984;28;20025;-55
2023/10/07 11:18:38;;;;;;;11.35;7.50;;;16.80;99.90;;;;;;5030944;28;20430;-56
2023/10/07 11:21:21;;;;;;;11.93;7.57;;;16.80;99.90;;;;;;5031568;28;20087;-56
2023/10/07 11:23:52;;;;;;;9.48;7.28;;;16.80;99.90;;;;;;5028904;28;20053;-55
2023/10/07 11:26:20;;;;;;;9.80;7.30;;;16.80;99.90;;;;;;5026770;28;20073;-55
2023/10/07 11:28:48;;;;;;;10.25;6.40;;;16.80;99.90;;;;;;5024184;28;20100;-56
2023/10/07 11:31:20;;;;;;;9.52;8.07;;;16.80;99.90;;;;;;5026537;28;20129;-55
2023/10/07 11:33:50;;;;;;;10.82;7.40;;;16.80;99.90;;;;;;5029931;28;20626;-55
2023/10/07 11:36:16;;;;;;;9.93;7.68;;;16.80;99.90;;;;;;5030831;28;20064;-55
2023/10/07 11:38:42;;;;;;;12.65;9.15;;;16.80;99.90;;;;;;5026218;28;20625;-56
2023/10/07 11:41:10;;;;;;;10.95;8.02;;;16.80;99.90;;;;;;5027982;28;20064;-50
2023/10/07 11:43:48;;;;;;;10.15;7.60;;;16.70;99.90;;;;;;5026254;28;20022;-55
2023/10/07 11:46:14;;;;;;;10.90;8.73;;;16.70;99.90;;;;;;5024197;28;20036;-55
2023/10/07 11:48:41;;;;;;;12.82;9.30;;;16.60;99.90;;;;;;5024032;28;20034;-54
2023/10/07 11:51:07;;;;;;;11.23;8.75;;;16.60;99.90;;;;;;5034864;28;20060;-56
2023/10/07 11:53:34;;;;;;;14.80;10.05;;;16.60;99.90;;;;;;5028541;28;20095;-56
2023/10/07 11:56:01;;;;;;;12.05;9.65;;;16.60;99.90;;;;;;5028371;28;20044;-56
2023/10/07 11:58:27;;;;;;;10.38;9.30;;;16.50;99.90;;;;;;5029493;28;20028;-56
2023/10/07 12:00:55;;;;;;;12.52;9.40;;;16.50;99.90;;;;;;5025579;28;20030;-56
2023/10/07 12:03:20;;;;;;;13.77;10.10;;;16.60;99.90;;;;;;5028079;28;20087;-56
2023/10/07 12:05:46;;;;;;;12.30;9.23;;;16.50;99.90;;;;;;5026203;28;20029;-56
2023/10/07 12:08:12;;;;;;;10.35;8.55;;;16.60;99.90;;;;;;5033049;28;20038;-57
2023/10/07 12:10:38;;;;;;;10.60;9.50;;;16.60;99.90;;;;;;5024115;28;20044;-56
2023/10/07 12:13:07;;;;;;;11.57;8.60;;;16.60;99.90;;;;;;5021823;28;20033;-54
2023/10/07 12:15:35;;;;;;;12.55;9.75;;;16.60;99.90;;;;;;5024363;28;20835;-57
2023/10/07 12:18:06;;;;;;;16.02;10.68;;;16.60;99.90;;;;;;5028255;28;20501;-56
2023/10/07 12:20:32;;;;;;;11.75;9.10;;;16.60;99.90;;;;;;5025377;28;20627;-55
2023/10/07 12:22:57;;;;;;;13.18;9.55;;;16.70;99.90;;;;;;5027000;28;20291;-57
2023/10/07 12:25:23;;;;;;;12.68;9.50;;;16.60;99.90;;;;;;5034560;28;20033;-55
2023/10/07 12:27:52;;;;;;;13.43;10.90;;;16.60;99.90;;;;;;5031104;28;20408;-52
2023/10/07 12:30:21;;;;;;;13.15;9.65;;;16.60;99.90;;;;;;5023218;28;20031;-56
2023/10/07 12:32:53;;;;;;;14.02;9.63;;;16.60;99.90;;;;;;5028524;28;20504;-56
2023/10/07 12:35:19;;;;;;;12.55;9.80;;;16.60;99.90;;;;;;5027252;28;20017;-56
2023/10/07 12:37:48;;;;;;;11.95;10.15;;;16.50;99.90;;;;;;5020963;28;20029;-56
2023/10/07 12:40:17;;;;;;;11.88;9.57;;;16.50;99.90;;;;;;5024152;28;20025;-56
2023/10/07 12:42:44;;;;;;;12.55;8.88;;;16.50;99.90;;;;;;5027792;28;20540;-55
2023/10/07 12:45:11;;;;;;;11.68;9.32;;;16.50;99.90;;;;;;5026167;28;20025;-55
2023/10/07 12:47:42;;;;;;;14.50;9.73;;;16.50;99.90;;;;;;5018905;28;20029;-56
2023/10/07 12:50:28;;;;;;;11.85;9.10;;;16.50;99.90;;;;;;5024485;28;20087;-56
2023/10/07 12:52:56;;;;;;;13.13;9.60;;;16.50;99.90;;;;;;5005300;28;20076;-56
2023/10/07 12:55:22;;;;;;;12.13;8.75;;;16.50;99.90;;;;;;5024280;28;20045;-54
2023/10/07 12:57:51;;;;;;;16.52;10.32;;;16.50;99.90;;;;;;5027257;28;20032;-54
2023/10/07 13:00:22;;;;;;;14.55;9.82;;;16.50;99.90;;;;;;5031125;28;20017;-55
2023/10/07 13:02:52;;;;;;;12.77;9.75;;;16.50;99.90;;;;;;5026961;28;20480;-53
2023/10/07 13:05:18;;;;;;;16.40;10.75;;;16.60;99.90;;;;;;5029419;28;20147;-56
2023/10/07 13:07:53;;;;;;;14.10;9.27;;;16.50;99.90;;;;;;5025931;28;20060;-55
2023/10/07 13:10:19;;;;;;;12.95;9.35;;;16.60;99.90;;;;;;5031423;28;20037;-57
2023/10/07 13:12:55;;;;;;;12.90;9.80;;;16.60;99.90;;;;;;5029194;28;20056;-57
2023/10/07 13:15:30;;;;;;;14.50;9.35;;;16.60;99.90;;;;;;5022503;28;20034;-54
2023/10/07 13:17:58;;;;;;;18.03;11.30;;;16.70;99.90;;;;;;5021067;28;20033;-56
2023/10/07 13:20:24;;;;;;;13.90;10.27;;;16.70;99.90;;;;;;5031976;28;20029;-56
2023/10/07 13:22:51;;;;;;;12.07;9.25;;;16.60;99.90;;;;;;5025531;28;20057;-57
2023/10/07 13:25:19;;;;;;;13.82;9.30;;;16.70;99.90;;;;;;5022374;28;20032;-57
2023/10/07 13:27:49;;;;;;;11.48;9.00;;;16.70;99.90;;;;;;5031404;28;20065;-56
2023/10/07 13:30:16;;;;;;;16.35;10.48;;;16.60;99.90;;;;;;5029758;28;20057;-56
2023/10/07 13:32:46;;;;;;;13.05;9.63;;;16.70;99.90;;;;;;5028125;28;20025;-56
2023/10/07 13:35:15;;;;;;;12.38;9.50;;;16.70;99.90;;;;;;5026464;28;20032;-55
2023/10/07 13:37:43;;;;;;;13.35;9.40;;;16.70;99.90;;;;;;5024235;28;20022;-56
2023/10/07 13:40:15;;;;;;;14.93;10.75;;;16.70;99.90;;;;;;5007068;28;20393;-56